Orlando, Florida
Traffic Map
Current Weather Conditions
Orlando, Florida
Clear Thunderstorm
Clear
33°
Feels Like: 36°
Wind Chill: 33° Ceiling: Unl
Heat Index: 36° Visibility: 10mi
Dew Point: 21° Wind: 7mph
Humidity: 48% Direction: ° ()
Pressure: 30.1in Gusts: 0mph
Raw Report DataKORL 052053Z AUTO VRB06KT 10SM VCTS CLR 33/21 A3010 RMK AO2 LTG DSNT ALQDS PRESRR SLP196 T03330211 55014
Traffic Incident Summary
Active as of:
Severity:
Category:
InformationThere was an issue retrieving the traffic information for this location. Please try a different location or try again shortly.
Advertisements
Track Severe Weather on mobile